Latest Coastal Weather Observations for Burnie Port

IDT60701

Issued at 8:22 pm EST Friday 19 July 2019 (issued every 10 minutes, with the page automatically refreshed every 10 minutes)

About coastal observations | Map of coastal stations | Coastal observations for TAS | Marine services | Other Formats
Station Details ID: 091344 Name: BURNIE NTC AWS Lat: -41.05 Lon: 145.91 Height: 0.0 m
Data from the previous 72 hours. | See also: Recent months for locations in Tasmania
Date/Time
EST
Wind Sea
Height
m
Swell Vis
km
Cloud Weather Temp
°C
Press
hPa
Rain since
9am
mm
Dir  Spd
kts
Gust
kts
Height
m
Period
s
Dir
19/08:00pm WNW 5 8 - - - - - - - 9.8 1018.5 -
19/07:30pm W 5 9 - - - - - - - 10.1 1018.1 -
19/07:00pm WNW 8 14 - - - - - - - 10.4 1017.8 -
19/06:30pm WNW 3 6 - - - - - - - 10.9 1017.2 -
19/06:00pm WNW 2 4 - - - - - - - 11.2 1016.8 -
19/05:30pm WSW 4 6 - - - - - - - 11.6 1016.3 -
19/05:00pm W 4 9 - - - - - - - 11.9 1016.2 -
19/04:30pm WSW 7 12 - - - - - - - 12.3 1015.8 -
19/04:00pm WNW 8 15 - - - - - - - 12.7 1015.6 -
19/03:30pm WNW 8 14 - - - - - - - 12.9 1015.3 -
19/03:00pm WNW 9 14 - - - - - - - 13.2 1015.1 -
19/02:30pm WSW 12 20 - - - - - - - 13.3 1014.8 -
19/02:00pm W 10 17 - - - - - - - 13.2 1014.6 -
19/01:30pm W 12 20 - - - - - - - 13.0 1014.7 -
19/01:00pm WNW 8 14 - - - - - - - 13.4 1014.7 -
19/12:30pm W 12 24 - - - - - - - 12.9 1014.6 -
19/12:00pm W 11 20 - - - - - - - 12.7 1014.9 -
19/11:30am W 11 21 - - - - - - - 12.5 1015.3 -
19/11:00am W 14 26 - - - - - - - 12.1 1015.5 -
19/10:56am W 15 26 - - - - - - - 12.0 1015.6 -
19/10:30am W 9 18 - - - - - - - 11.7 1015.4 -
19/10:00am WNW 10 19 - - - - - - - 10.9 1015.1 -
19/09:30am W 11 20 - - - - - - - 10.7 1014.7 -
19/09:00am W 7 14 - - - - - - - 9.4 1014.8 -
19/08:30am W 9 14 - - - - - - - 9.0 1014.4 -
19/08:00am W 9 15 - - - - - - - 8.7 1014.1 -
19/07:30am W 9 13 - - - - - - - 8.3 1013.7 -
19/07:00am W 9 13 - - - - - - - 8.1 1013.3 -
19/06:30am WNW 6 10 - - - - - - - 8.2 1012.9 -
19/06:00am WNW 4 7 - - - - - - - 8.3 1012.7 -
19/05:30am WNW 5 8 - - - - - - - 8.7 1012.0 -
19/05:00am WNW 6 9 - - - - - - - 8.7 1011.5 -
19/04:30am W 6 11 - - - - - - - 9.0 1011.2 -
19/04:00am W 7 12 - - - - - - - 9.1 1010.8 -
19/03:30am W 6 13 - - - - - - - 9.2 1010.6 -
19/03:00am W 9 14 - - - - - - - 9.2 1010.2 -
19/02:30am W 11 20 - - - - - - - 9.4 1009.6 -
19/02:00am W 9 18 - - - - - - - 9.5 1009.1 -
19/01:30am W 9 17 - - - - - - - 9.4 1008.5 -
19/01:00am W 9 17 - - - - - - - 9.8 1008.1 -
19/12:30am WNW 9 15 - - - - - - - 9.7 1007.5 -
19/12:00am W 10 19 - - - - - - - 10.2 1007.2 -
 
Date/Time
EST
Wind Sea
Height
m
Swell Vis
km
Cloud Weather Temp
°C
Press
hPa
Rain since
9am
mm
Dir  Spd
kts
Gust
kts
Height
m
Period
s
Dir
18/11:30pm W 12 22 - - - - - - - 10.5 1006.7 -
18/11:00pm WNW 12 23 - - - - - - - 10.8 1006.0 -
18/10:30pm W 10 16 - - - - - - - 11.2 1005.5 -
18/10:00pm W 13 28 - - - - - - - 12.2 1005.1 -
18/09:54pm NW 25 40 - - - - - - - 12.4 1004.9 -
18/09:52pm NW 29 40 - - - - - - - 12.5 1004.9 -
18/09:40pm NNW 31 42 - - - - - - - 11.8 1004.0 -
18/09:30pm NNW 29 36 - - - - - - - 12.4 1004.3 -
18/09:00pm NNW 28 35 - - - - - - - 12.2 1005.1 -
18/08:32pm NNW 29 39 - - - - - - - 11.3 1005.5 -
18/08:30pm NNW 30 39 - - - - - - - 11.1 1005.5 -
18/08:00pm NNW 24 34 - - - - - - - 11.0 1006.3 -
18/07:59pm NNW 23 34 - - - - - - - 11.2 1006.4 -
18/07:30pm NW 21 26 - - - - - - - 11.1 1007.2 -
18/07:00pm NW 24 31 - - - - - - - 11.7 1007.7 -
18/06:30pm NW 26 31 - - - - - - - 12.0 1007.9 -
18/06:03pm WNW 12 26 - - - - - - - 11.9 1007.9 -
18/06:00pm WNW 12 28 - - - - - - - 11.3 1008.0 -
18/05:49pm NW 14 27 - - - - - - - 12.1 1007.9 -
18/05:30pm WNW 6 10 - - - - - - - 11.8 1008.2 -
18/05:00pm WNW 6 11 - - - - - - - 11.7 1008.9 -
18/04:30pm WNW 8 13 - - - - - - - 11.7 1009.1 -
18/04:00pm NW 10 13 - - - - - - - 11.9 1009.3 -
18/03:30pm NW 8 12 - - - - - - - 11.8 1009.8 -
18/03:00pm WNW 7 11 - - - - - - - 11.8 1010.1 -
18/02:30pm NW 7 9 - - - - - - - 11.4 1010.4 -
18/02:00pm WNW 10 14 - - - - - - - 11.4 1010.7 -
18/01:30pm NW 7 12 - - - - - - - 11.3 1010.7 -
18/01:00pm NW 8 12 - - - - - - - 10.9 1011.2 -
18/12:30pm WNW 7 11 - - - - - - - 10.8 1011.7 -
18/12:00pm WNW 7 11 - - - - - - - 10.5 1012.0 -
18/11:30am WNW 8 12 - - - - - - - 10.3 1012.3 -
18/11:00am WNW 6 9 - - - - - - - 10.1 1012.8 -
18/10:30am NW 5 9 - - - - - - - 9.7 1013.1 -
18/10:00am NW 5 7 - - - - - - - 8.8 1012.6 -
18/09:30am WNW 6 9 - - - - - - - 8.8 1012.5 -
18/09:00am WNW 7 10 - - - - - - - 8.4 1012.2 -
18/08:30am W 7 14 - - - - - - - 8.4 1012.0 -
18/08:00am W 9 13 - - - - - - - 7.9 1011.8 -
18/07:30am W 8 14 - - - - - - - 7.8 1011.6 -
18/07:00am NW 6 9 - - - - - - - 8.2 1011.4 -
18/06:30am NW 4 7 - - - - - - - 8.0 1010.8 -
18/06:00am WNW 8 13 - - - - - - - 7.4 1010.2 -
18/05:30am WNW 8 12 - - - - - - - 7.6 1010.0 -
18/05:00am WNW 9 14 - - - - - - - 8.3 1009.9 -
18/04:30am W 9 14 - - - - - - - 8.1 1009.6 -
18/04:00am WSW 9 15 - - - - - - - 8.4 1009.7 -
18/03:30am WSW 9 15 - - - - - - - 8.2 1009.7 -
18/03:00am WSW 8 15 - - - - - - - 8.4 1009.5 -
18/02:30am W 6 10 - - - - - - - 8.0 1009.3 -
18/02:00am W 9 12 - - - - - - - 8.0 1008.8 -
18/01:30am W 8 11 - - - - - - - 7.8 1008.7 -
18/01:00am WSW 7 12 - - - - - - - 8.1 1008.8 -
18/12:30am WSW 13 20 - - - - - - - 8.4 1008.3 -
18/12:00am WSW 16 32 - - - - - - - 8.3 1008.1 -
 
Date/Time
EST
Wind Sea
Height
m
Swell Vis
km
Cloud Weather Temp
°C
Press
hPa
Rain since
9am
mm
Dir  Spd
kts
Gust
kts
Height
m
Period
s
Dir
17/11:59pm WSW 15 32 - - - - - - - 8.2 1008.1 -
17/11:30pm WSW 11 18 - - - - - - - 9.0 1007.5 -
17/11:00pm WSW 9 15 - - - - - - - 9.2 1006.6 -
17/10:30pm W 9 17 - - - - - - - 9.0 1006.2 -
17/10:00pm W 10 18 - - - - - - - 9.2 1005.9 -
17/09:30pm W 8 13 - - - - - - - 8.8 1005.8 -
17/09:00pm W 9 16 - - - - - - - 9.0 1005.9 -
17/08:30pm WSW 11 18 - - - - - - - 9.0 1005.9 -
17/08:00pm WSW 11 17 - - - - - - - 9.2 1005.7 -
17/07:30pm WSW 8 13 - - - - - - - 9.5 1005.5 -
17/07:00pm W 12 20 - - - - - - - 9.4 1004.7 -
17/06:30pm W 10 15 - - - - - - - 9.3 1004.4 -
17/06:00pm W 10 17 - - - - - - - 10.0 1004.3 -
17/05:30pm W 8 14 - - - - - - - 9.9 1003.3 -
17/05:00pm W 10 17 - - - - - - - 10.3 1003.4 -
17/04:30pm W 15 27 - - - - - - - 10.9 1003.3 -
17/04:09pm W 15 26 - - - - - - - 11.9 1002.4 -
17/04:00pm W 9 16 - - - - - - - 11.9 1002.5 -
17/03:30pm WSW 11 21 - - - - - - - 12.1 1002.4 -
17/03:09pm W 15 28 - - - - - - - 12.2 1002.1 -
17/03:00pm W 12 20 - - - - - - - 11.9 1002.1 -
17/02:30pm W 11 17 - - - - - - - 11.0 1001.9 -
17/02:00pm W 9 21 - - - - - - - 11.2 1002.5 -
17/01:30pm W 10 17 - - - - - - - 11.4 1002.6 -
17/01:01pm WNW 15 25 - - - - - - - 11.3 1003.2 -
17/01:00pm WNW 15 24 - - - - - - - 11.4 1003.3 -
17/12:30pm WNW 12 24 - - - - - - - 11.8 1003.8 -
17/12:10pm WNW 15 25 - - - - - - - 11.6 1004.4 -
17/12:00pm WNW 18 26 - - - - - - - 11.9 1004.6 -
17/11:30am NW 18 25 - - - - - - - 12.3 1005.3 -
17/11:00am NW 17 22 - - - - - - - 11.9 1006.3 -
17/10:30am WNW 12 23 - - - - - - - 12.2 1007.1 -
17/10:00am WNW 11 22 - - - - - - - 12.2 1007.4 -
17/09:30am WNW 10 16 - - - - - - - 11.5 1007.9 -
17/09:00am WNW 7 11 - - - - - - - 10.8 1008.2 -
17/08:30am WNW 10 14 - - - - - - - 10.4 1008.6 -
17/08:00am WNW 12 18 - - - - - - - 10.4 1008.8 -
17/07:30am W 8 12 - - - - - - - 10.3 1009.1 -
17/07:00am WNW 7 12 - - - - - - - 10.3 1009.3 -
17/06:30am WNW 6 12 - - - - - - - 10.3 1009.4 -
17/06:00am WNW 10 15 - - - - - - - 10.3 1009.8 -
17/05:30am WNW 8 13 - - - - - - - 10.2 1009.9 -
17/05:00am W 9 15 - - - - - - - 10.2 1010.5 -
17/04:30am WNW 10 14 - - - - - - - 9.8 1010.5 -
17/04:00am WNW 9 14 - - - - - - - 10.2 1011.3 -
17/03:30am WNW 9 14 - - - - - - - 9.9 1011.5 -
17/03:00am WNW 7 10 - - - - - - - 9.8 1012.0 -
17/02:30am WNW 9 14 - - - - - - - 9.9 1012.6 -
17/02:00am WNW 11 14 - - - - - - - 10.1 1012.9 -
17/01:30am NW 15 18 - - - - - - - 10.3 1013.0 -
17/01:00am NW 14 17 - - - - - - - 10.3 1013.2 -
17/12:30am WNW 7 12 - - - - - - - 10.0 1013.6 -
17/12:00am WNW 9 14 - - - - - - - 10.5 1013.7 -
 
Date/Time
EST
Wind Sea
Height
m
Swell Vis
km
Cloud Weather Temp
°C
Press
hPa
Rain since
9am
mm
Dir  Spd
kts
Gust
kts
Height
m
Period
s
Dir
16/11:30pm WNW 7 11 - - - - - - - 10.7 1014.0 -
16/11:00pm WNW 9 16 - - - - - - - 10.8 1014.1 -
16/10:30pm WNW 10 14 - - - - - - - 10.6 1014.2 -
16/10:00pm WNW 8 11 - - - - - - - 10.8 1014.4 -
16/09:30pm WNW 8 11 - - - - - - - 11.3 1014.4 -
16/09:00pm NW 7 9 - - - - - - - 11.5 1014.5 -
16/08:30pm WNW 7 11 - - - - - - - 11.5 1014.4 -

Other formats

Comma delimited format used in spreadsheet applications
http://www.bom.gov.au/fwo/IDT60701/IDT60701.95963.axf

JavaScript Object Notation format (JSON) in row-major order
http://www.bom.gov.au/fwo/IDT60701/IDT60701.95963.json

Data quality

Most of these data are generated automatically and are frequently updated. Quality checks on data are not normally performed. It is possible for incorrect values to appear. Refer to information at About Latest Weather Observations and please check the disclaimer before using these data.